createdAt,value
2022-09-21T00:01:16.191Z,81.26
2022-09-21T00:03:43.676Z,80.92
2022-09-21T00:06:13.777Z,81.48
2022-09-21T00:08:40.491Z,82.00
2022-09-21T00:11:08.771Z,81.67
2022-09-21T00:13:37.884Z,81.87
2022-09-21T00:16:08.422Z,81.98
2022-09-21T00:18:36.378Z,82.10
2022-09-21T00:21:08.048Z,82.17
2022-09-21T00:23:36.190Z,81.81
2022-09-21T00:26:13.508Z,81.71
2022-09-21T00:28:40.756Z,81.89
2022-09-21T00:31:12.171Z,82.51
2022-09-21T00:33:39.431Z,82.79
2022-09-21T00:36:07.916Z,82.88
2022-09-21T00:38:35.098Z,82.68
2022-09-21T00:41:02.099Z,82.50
2022-09-21T00:43:28.749Z,82.08
2022-09-21T00:46:07.306Z,81.92
2022-09-21T00:48:34.258Z,82.05
2022-09-21T00:51:06.475Z,81.78
2022-09-21T00:53:34.117Z,81.72
2022-09-21T00:56:02.721Z,81.76
2022-09-21T00:58:33.122Z,81.37
2022-09-21T01:01:00.543Z,81.27
2022-09-21T01:03:29.198Z,80.98
2022-09-21T01:05:56.519Z,81.31
2022-09-21T01:08:26.089Z,81.33
2022-09-21T01:11:08.383Z,81.16
2022-09-21T01:13:43.528Z,81.08
2022-09-21T01:16:12.670Z,81.04
2022-09-21T01:19:07.924Z,80.98
2022-09-21T01:22:03.417Z,81.24
2022-09-21T01:24:51.131Z,81.39
2022-09-21T01:27:32.127Z,81.34
2022-09-21T01:30:05.572Z,82.09
2022-09-21T01:32:33.738Z,81.86
2022-09-21T01:35:09.554Z,81.74
2022-09-21T01:37:40.248Z,82.22
2022-09-21T01:40:12.712Z,81.48
2022-09-21T01:42:41.023Z,81.29
2022-09-21T01:45:09.289Z,80.99
2022-09-21T01:47:37.522Z,80.96
2022-09-21T01:50:06.395Z,81.03
2022-09-21T01:52:48.182Z,81.02
2022-09-21T01:55:21.899Z,81.68
2022-09-21T01:58:12.116Z,81.80
2022-09-21T02:00:40.266Z,81.63
2022-09-21T02:03:16.091Z,81.81
2022-09-21T02:05:42.990Z,81.85
2022-09-21T02:08:10.433Z,81.65
2022-09-21T02:10:45.066Z,81.62
2022-09-21T02:13:14.407Z,81.63
2022-09-21T02:15:51.729Z,81.90
2022-09-21T02:18:57.764Z,82.11
2022-09-21T02:21:49.495Z,82.17
2022-09-21T02:24:27.684Z,81.96
2022-09-21T02:27:04.364Z,81.52
2022-09-21T02:29:45.467Z,82.46
2022-09-21T02:32:38.229Z,82.81
2022-09-21T02:35:28.441Z,82.36
2022-09-21T02:38:08.890Z,82.27
2022-09-21T02:40:41.171Z,82.69
2022-09-21T02:43:13.715Z,82.90
2022-09-21T02:45:45.291Z,82.88
2022-09-21T02:48:17.183Z,83.13
2022-09-21T02:50:52.842Z,83.40
2022-09-21T02:53:24.155Z,83.13
2022-09-21T02:55:55.743Z,82.94
2022-09-21T02:58:25.985Z,82.78
2022-09-21T03:00:52.943Z,82.76
2022-09-21T03:03:24.864Z,82.84
2022-09-21T03:05:53.554Z,82.50
2022-09-21T03:08:20.961Z,82.07
2022-09-21T03:10:51.152Z,82.28
2022-09-21T03:13:18.901Z,82.01
2022-09-21T03:15:46.131Z,82.93
2022-09-21T03:18:13.269Z,83.06
2022-09-21T03:20:46.028Z,83.31
2022-09-21T03:23:13.071Z,83.41
2022-09-21T03:25:39.982Z,83.47
2022-09-21T03:28:06.932Z,83.54
2022-09-21T03:30:33.582Z,83.47
2022-09-21T03:33:00.231Z,83.80
2022-09-21T03:35:27.014Z,83.76
2022-09-21T03:37:55.340Z,83.73
2022-09-21T03:40:22.327Z,83.91
2022-09-21T03:42:49.328Z,83.86
2022-09-21T03:45:16.015Z,84.12
2022-09-21T03:47:42.982Z,84.31
2022-09-21T03:50:10.385Z,84.29
2022-09-21T03:52:38.633Z,83.73
2022-09-21T03:55:07.243Z,83.53
2022-09-21T03:57:34.539Z,83.40
2022-09-21T04:00:03.970Z,83.68
2022-09-21T04:02:32.115Z,84.21
2022-09-21T04:04:58.915Z,84.03
2022-09-21T04:07:26.352Z,84.00
2022-09-21T04:09:54.117Z,83.69
2022-09-21T04:12:23.904Z,83.36
2022-09-21T04:14:50.568Z,83.65
2022-09-21T04:17:17.323Z,84.03
2022-09-21T04:19:47.842Z,82.90
2022-09-21T04:22:14.866Z,82.86
2022-09-21T04:24:41.573Z,82.59
2022-09-21T04:27:08.816Z,82.41
2022-09-21T04:29:36.110Z,82.71
2022-09-21T04:32:03.293Z,83.36
2022-09-21T04:34:31.237Z,83.44
2022-09-21T04:36:58.591Z,83.41
2022-09-21T04:39:26.312Z,83.30
2022-09-21T04:41:53.227Z,83.60
2022-09-21T04:44:19.995Z,83.40
2022-09-21T04:46:47.179Z,83.52
2022-09-21T04:49:14.145Z,83.17
2022-09-21T04:51:40.892Z,83.30
2022-09-21T04:54:07.839Z,83.08
2022-09-21T04:56:34.995Z,82.61
2022-09-21T04:59:01.644Z,82.25
2022-09-21T05:01:28.972Z,82.36
2022-09-21T05:03:55.934Z,82.37
2022-09-21T05:06:22.587Z,82.89
2022-09-21T05:09:07.917Z,83.34
2022-09-21T05:11:34.681Z,83.56
2022-09-21T05:14:01.409Z,83.68
2022-09-21T05:16:28.096Z,84.12
2022-09-21T05:18:57.453Z,84.04
2022-09-21T05:21:24.194Z,84.26
2022-09-21T05:23:51.108Z,84.64
2022-09-21T05:26:17.822Z,84.76
2022-09-21T05:28:44.695Z,84.28
2022-09-21T05:31:18.046Z,84.00
2022-09-21T05:33:52.036Z,83.64
2022-09-21T05:36:30.727Z,83.53
2022-09-21T05:38:57.588Z,82.96
2022-09-21T05:41:24.448Z,82.67
2022-09-21T05:43:51.346Z,82.66
2022-09-21T05:46:32.915Z,82.96
2022-09-21T05:49:23.074Z,83.06
2022-09-21T05:52:03.048Z,83.07
2022-09-21T05:54:41.611Z,83.09
2022-09-21T05:57:30.683Z,83.02
2022-09-21T06:00:10.675Z,83.32
2022-09-21T06:03:24.559Z,83.47
2022-09-21T06:05:51.280Z,83.57
2022-09-21T06:08:17.947Z,83.81
2022-09-21T06:10:44.728Z,83.42
2022-09-21T06:13:11.753Z,83.40
2022-09-21T06:15:38.632Z,83.35
2022-09-21T06:18:08.932Z,83.30
2022-09-21T06:20:35.864Z,83.81
2022-09-21T06:23:06.820Z,84.20
2022-09-21T06:25:33.432Z,84.42
2022-09-21T06:28:07.791Z,84.04
2022-09-21T06:30:34.931Z,83.73
2022-09-21T06:33:02.498Z,84.12
2022-09-21T06:35:29.869Z,84.36
2022-09-21T06:38:00.713Z,84.27
2022-09-21T06:40:28.663Z,84.29
2022-09-21T06:42:59.591Z,84.22
2022-09-21T06:45:27.596Z,84.49
2022-09-21T06:47:54.332Z,84.26
2022-09-21T06:50:21.439Z,84.50
2022-09-21T06:52:48.145Z,84.86
2022-09-21T06:55:18.093Z,84.81
2022-09-21T06:57:45.041Z,84.76
2022-09-21T07:00:12.814Z,83.97
2022-09-21T07:02:43.507Z,83.30
2022-09-21T07:05:10.351Z,82.56
2022-09-21T07:07:36.989Z,82.94
2022-09-21T07:10:05.861Z,82.82
2022-09-21T07:12:36.063Z,82.44
2022-09-21T07:15:03.746Z,82.49
2022-09-21T07:17:38.299Z,82.51
2022-09-21T07:20:06.420Z,82.38
2022-09-21T07:22:33.187Z,82.04
2022-09-21T07:25:00.055Z,81.87
2022-09-21T07:27:28.074Z,82.33
2022-09-21T07:29:54.807Z,82.22
2022-09-21T07:32:21.732Z,82.32
2022-09-21T07:34:48.413Z,82.28
2022-09-21T07:37:15.292Z,82.54
2022-09-21T07:39:41.975Z,82.50
2022-09-21T07:42:08.768Z,82.10
2022-09-21T07:44:35.474Z,81.75
2022-09-21T07:47:03.510Z,81.58
2022-09-21T07:49:30.250Z,81.29
2022-09-21T07:52:01.386Z,81.00
2022-09-21T07:54:29.558Z,80.54
2022-09-21T07:57:15.266Z,80.33
2022-09-21T07:59:41.921Z,79.79
2022-09-21T08:02:08.599Z,79.96
2022-09-21T08:04:35.308Z,79.39
2022-09-21T08:07:01.906Z,79.51
2022-09-21T08:09:28.540Z,78.12
2022-09-21T08:11:55.815Z,77.63
2022-09-21T08:14:26.819Z,77.10
2022-09-21T08:16:53.828Z,76.79
2022-09-21T08:19:21.053Z,75.96
2022-09-21T08:21:56.303Z,74.91
2022-09-21T08:24:25.900Z,75.29
2022-09-21T08:26:53.205Z,74.58
2022-09-21T08:29:19.935Z,74.09
2022-09-21T08:31:47.010Z,73.69
2022-09-21T08:34:14.338Z,73.58
2022-09-21T08:36:41.214Z,72.89
2022-09-21T08:39:09.048Z,70.67
2022-09-21T08:41:58.277Z,70.46
2022-09-21T08:44:29.092Z,69.54
2022-09-21T08:47:09.787Z,69.25
2022-09-21T08:49:38.277Z,68.47
2022-09-21T08:52:14.748Z,69.23
2022-09-21T08:54:46.970Z,68.65
2022-09-21T08:57:15.093Z,68.13
2022-09-21T08:59:47.195Z,67.51
2022-09-21T09:02:52.535Z,66.50
2022-09-21T09:05:44.190Z,65.71
2022-09-21T09:08:35.430Z,65.83
2022-09-21T09:11:06.460Z,65.77
2022-09-21T09:13:55.922Z,65.75
2022-09-21T09:16:47.810Z,66.84
2022-09-21T09:19:29.050Z,66.72
2022-09-21T09:21:56.648Z,66.07
2022-09-21T09:24:42.669Z,66.09
2022-09-21T09:27:20.872Z,63.27
2022-09-21T09:30:04.226Z,63.45
2022-09-21T09:32:43.487Z,62.81
2022-09-21T09:35:25.461Z,63.19
2022-09-21T09:37:55.174Z,63.81
2022-09-21T09:40:55.164Z,63.79
2022-09-21T09:43:38.715Z,63.26
2022-09-21T09:46:20.559Z,62.57
2022-09-21T09:49:05.005Z,61.54
2022-09-21T09:51:35.253Z,61.66
2022-09-21T09:54:06.894Z,64.31
2022-09-21T09:56:36.200Z,65.31
2022-09-21T09:59:08.301Z,65.99
2022-09-21T10:01:44.420Z,64.39
2022-09-21T10:04:12.964Z,65.52
2022-09-21T10:06:45.349Z,66.24
2022-09-21T10:09:19.474Z,63.47
2022-09-21T10:11:46.608Z,63.70
2022-09-21T10:14:21.202Z,62.08
2022-09-21T10:16:51.672Z,62.26
2022-09-21T10:19:24.030Z,61.71
2022-09-21T10:22:01.629Z,60.86
2022-09-21T10:24:34.065Z,65.51
2022-09-21T10:27:14.441Z,64.70
2022-09-21T10:29:43.391Z,60.74
2022-09-21T10:32:14.940Z,62.36
2022-09-21T10:35:00.476Z,60.58
2022-09-21T10:37:37.280Z,59.11
2022-09-21T10:40:05.325Z,58.54
2022-09-21T10:42:36.511Z,58.89
2022-09-21T10:45:20.224Z,59.25
2022-09-21T10:47:53.077Z,58.99
2022-09-21T10:50:26.101Z,59.58
2022-09-21T10:53:01.177Z,60.12
2022-09-21T10:55:30.138Z,60.56
2022-09-21T10:57:57.083Z,59.17
2022-09-21T11:00:34.994Z,58.50
2022-09-21T11:03:35.797Z,56.85
2022-09-21T11:06:15.394Z,57.68
2022-09-21T11:08:50.104Z,58.88
2022-09-21T11:11:27.288Z,58.66
2022-09-21T11:14:05.053Z,57.23
2022-09-21T11:16:42.063Z,57.26
2022-09-21T11:19:18.855Z,57.15
2022-09-21T11:22:02.435Z,55.80
2022-09-21T11:24:37.140Z,57.41
2022-09-21T11:27:11.554Z,61.87
2022-09-21T11:29:51.518Z,57.92
2022-09-21T11:32:49.476Z,57.60
2022-09-21T11:35:33.019Z,55.54
2022-09-21T11:38:34.281Z,58.33
2022-09-21T11:41:18.882Z,52.77
2022-09-21T11:43:51.540Z,55.06
2022-09-21T11:46:40.844Z,52.78
2022-09-21T11:49:40.177Z,57.10
2022-09-21T11:52:32.397Z,50.75
2022-09-21T11:55:16.861Z,50.31
2022-09-21T11:58:10.664Z,48.76
2022-09-21T12:00:45.721Z,54.29
2022-09-21T12:03:38.237Z,51.13
2022-09-21T12:06:28.390Z,50.39
2022-09-21T12:09:10.507Z,52.20
2022-09-21T12:11:44.778Z,46.61
2022-09-21T12:14:34.517Z,46.65
2022-09-21T12:17:24.471Z,47.23
2022-09-21T12:20:05.315Z,49.98
2022-09-21T12:22:35.206Z,49.26
2022-09-21T12:25:10.911Z,48.82
2022-09-21T12:27:40.134Z,46.50
2022-09-21T12:30:17.119Z,43.21
2022-09-21T12:32:58.119Z,43.37
2022-09-21T12:35:45.067Z,43.69
2022-09-21T12:41:37.368Z,43.06
2022-09-21T12:44:20.144Z,41.62
2022-09-21T12:47:09.489Z,44.03
2022-09-21T12:49:45.484Z,44.91
2022-09-21T12:52:24.737Z,43.42
2022-09-21T12:55:19.381Z,43.68
2022-09-21T12:58:14.499Z,46.73
2022-09-21T13:00:57.609Z,48.16
2022-09-21T13:03:36.214Z,46.27
2022-09-21T13:06:15.924Z,46.37
2022-09-21T13:08:44.767Z,43.72
2022-09-21T13:11:11.666Z,45.43
2022-09-21T13:13:41.655Z,46.99
2022-09-21T13:16:31.037Z,45.08
2022-09-21T13:19:03.443Z,43.85
2022-09-21T13:21:32.358Z,46.79
2022-09-21T13:24:01.483Z,44.16
2022-09-21T13:26:40.943Z,42.75
2022-09-21T13:29:19.902Z,44.33
2022-09-21T13:32:07.797Z,45.67
2022-09-21T13:34:45.378Z,44.38
2022-09-21T13:37:11.950Z,45.30
2022-09-21T13:39:50.636Z,45.14
2022-09-21T13:42:29.410Z,46.52
2022-09-21T13:44:59.978Z,43.58
2022-09-21T13:47:32.271Z,45.79
2022-09-21T13:50:12.642Z,46.86
2022-09-21T13:52:44.743Z,45.05
2022-09-21T13:55:28.703Z,43.26
2022-09-21T13:57:57.210Z,45.40
2022-09-21T14:00:36.402Z,44.07
2022-09-21T14:03:22.461Z,46.89
2022-09-21T14:06:20.506Z,47.24
2022-09-21T14:08:58.128Z,48.89
2022-09-21T14:11:39.291Z,45.83
2022-09-21T14:14:12.329Z,44.73
2022-09-21T14:16:39.576Z,46.25
2022-09-21T14:19:18.106Z,46.29
2022-09-21T14:22:05.561Z,46.48
2022-09-21T14:24:38.581Z,45.20
2022-09-21T14:27:31.657Z,41.91
2022-09-21T14:30:22.244Z,41.89
2022-09-21T14:33:07.411Z,42.75
2022-09-21T14:35:37.904Z,45.69
2022-09-21T14:38:12.738Z,42.56
2022-09-21T14:40:42.433Z,41.38
2022-09-21T14:43:12.532Z,45.88
2022-09-21T14:46:11.885Z,44.99
2022-09-21T14:49:16.119Z,42.99
2022-09-21T14:51:55.768Z,43.83
2022-09-21T14:55:02.744Z,43.09
2022-09-21T14:57:54.103Z,46.00
2022-09-21T15:00:35.578Z,42.39
2022-09-21T15:03:30.713Z,44.27
2022-09-21T15:06:31.066Z,44.63
2022-09-21T15:09:22.532Z,43.19
2022-09-21T15:11:56.699Z,46.39
2022-09-21T15:14:32.430Z,48.91
2022-09-21T15:16:59.246Z,42.19
2022-09-21T15:19:30.152Z,42.85
2022-09-21T15:22:15.202Z,44.85
2022-09-21T15:24:57.290Z,46.92
2022-09-21T15:27:33.473Z,47.01
2022-09-21T15:30:03.227Z,47.72
2022-09-21T15:32:47.651Z,48.09
2022-09-21T15:35:20.235Z,46.70
2022-09-21T15:37:47.612Z,45.38
2022-09-21T15:40:23.374Z,47.14
2022-09-21T15:43:15.904Z,50.98
2022-09-21T15:45:51.646Z,45.68
2022-09-21T15:48:19.913Z,49.50
2022-09-21T15:50:50.657Z,48.78
2022-09-21T15:53:23.746Z,45.81
2022-09-21T15:55:50.716Z,45.47
2022-09-21T15:58:29.885Z,46.52
2022-09-21T16:00:57.769Z,46.78
2022-09-21T16:03:26.064Z,45.52
2022-09-21T16:05:55.453Z,45.30
2022-09-21T16:08:34.630Z,46.42
2022-09-21T16:11:26.282Z,47.93
2022-09-21T16:14:32.827Z,50.59
2022-09-21T16:17:27.221Z,48.22
2022-09-21T16:19:54.008Z,46.52
2022-09-21T16:22:30.278Z,44.65
2022-09-21T16:24:59.489Z,45.26
2022-09-21T16:27:28.878Z,44.49
2022-09-21T16:29:57.299Z,44.52
2022-09-21T16:32:32.077Z,48.40
2022-09-21T16:35:31.715Z,48.77
2022-09-21T16:37:59.166Z,45.44
2022-09-21T16:40:28.185Z,46.29
2022-09-21T16:42:55.560Z,50.06
2022-09-21T16:45:31.810Z,52.38
2022-09-21T16:47:59.567Z,51.69
2022-09-21T16:50:26.532Z,52.65
2022-09-21T16:52:53.164Z,51.54
2022-09-21T16:55:22.468Z,52.06
2022-09-21T16:57:51.089Z,52.82
2022-09-21T17:00:22.152Z,52.78
2022-09-21T17:02:49.378Z,51.44
2022-09-21T17:05:19.412Z,53.07
2022-09-21T17:07:54.319Z,49.63
2022-09-21T17:10:24.317Z,50.64
2022-09-21T17:12:51.956Z,53.17
2022-09-21T17:15:18.723Z,51.58
2022-09-21T17:17:45.403Z,52.38
2022-09-21T17:20:21.520Z,52.45
2022-09-21T17:22:48.592Z,53.47
2022-09-21T17:25:15.354Z,51.41
2022-09-21T17:27:42.431Z,54.30
2022-09-21T17:30:13.374Z,55.26
2022-09-21T17:32:42.624Z,55.03
2022-09-21T17:35:33.985Z,56.45
2022-09-21T17:38:00.679Z,56.93
2022-09-21T17:40:27.647Z,56.65
2022-09-21T17:43:05.178Z,57.14
2022-09-21T17:45:42.612Z,57.81
2022-09-21T17:48:13.872Z,57.18
2022-09-21T17:50:40.621Z,58.40
2022-09-21T17:53:28.002Z,57.29
2022-09-21T17:55:57.886Z,55.30
2022-09-21T17:58:54.001Z,57.15
2022-09-21T18:01:39.680Z,56.83
2022-09-21T18:04:08.346Z,56.04
2022-09-21T18:06:35.448Z,55.66
2022-09-21T18:09:03.246Z,56.04
2022-09-21T18:12:07.609Z,56.99
2022-09-21T18:14:48.633Z,57.06
2022-09-21T18:17:48.277Z,56.22
2022-09-21T18:20:23.639Z,57.53
2022-09-21T18:23:02.363Z,59.15
2022-09-21T18:25:34.335Z,59.63
2022-09-21T18:28:17.217Z,60.05
2022-09-21T18:30:46.342Z,60.74
2022-09-21T18:33:31.192Z,60.73
2022-09-21T18:36:10.575Z,63.16
2022-09-21T18:38:53.184Z,64.82
2022-09-21T18:41:46.074Z,64.18
2022-09-21T18:44:26.180Z,64.11
2022-09-21T18:47:11.905Z,65.13
2022-09-21T18:50:03.942Z,63.30
2022-09-21T18:52:39.665Z,63.67
2022-09-21T18:55:18.339Z,64.83
2022-09-21T18:57:45.462Z,65.08
2022-09-21T19:00:13.475Z,65.53
2022-09-21T19:02:53.499Z,65.52
2022-09-21T19:05:27.722Z,66.42
2022-09-21T19:08:09.353Z,66.47
2022-09-21T19:10:44.301Z,66.85
2022-09-21T19:13:31.703Z,66.53
2022-09-21T19:16:05.203Z,66.27
2022-09-21T19:18:50.580Z,66.67
2022-09-21T19:21:28.216Z,66.64
2022-09-21T19:24:06.548Z,66.93
2022-09-21T19:26:48.164Z,67.43
2022-09-21T19:29:19.870Z,68.63
2022-09-21T19:31:46.957Z,68.45
2022-09-21T19:34:16.634Z,67.93
2022-09-21T19:36:47.201Z,68.14
2022-09-21T19:39:14.497Z,68.21
2022-09-21T19:41:49.230Z,68.77
2022-09-21T19:44:44.628Z,68.62
2022-09-21T19:47:25.698Z,68.50
2022-09-21T19:49:54.614Z,69.41
2022-09-21T19:52:28.723Z,69.53
2022-09-21T19:55:14.208Z,69.83
2022-09-21T19:58:00.125Z,70.19
2022-09-21T20:00:27.000Z,70.41
2022-09-21T20:03:03.471Z,71.22
2022-09-21T20:05:35.350Z,71.29
2022-09-21T20:08:16.474Z,71.79
2022-09-21T20:11:00.624Z,71.85
2022-09-21T20:13:33.064Z,72.32
2022-09-21T20:16:19.064Z,72.66
2022-09-21T20:18:55.074Z,72.91
2022-09-21T20:21:22.674Z,73.05
2022-09-21T20:23:58.158Z,73.24
2022-09-21T20:26:26.472Z,73.72
2022-09-21T20:28:53.867Z,73.84
2022-09-21T20:31:22.459Z,73.91
2022-09-21T20:33:49.592Z,73.86
2022-09-21T20:36:16.258Z,74.25
2022-09-21T20:38:42.950Z,74.17
2022-09-21T20:41:12.020Z,74.12
2022-09-21T20:43:38.945Z,74.61
2022-09-21T20:46:05.809Z,74.05
2022-09-21T20:48:32.822Z,74.45
2022-09-21T20:51:01.558Z,74.56
2022-09-21T20:53:28.256Z,74.91
2022-09-21T20:55:57.194Z,75.02
2022-09-21T20:58:24.815Z,75.34
2022-09-21T21:00:57.911Z,75.45
2022-09-21T21:03:25.330Z,75.63
2022-09-21T21:05:51.970Z,75.52
2022-09-21T21:08:18.845Z,75.44
2022-09-21T21:10:46.914Z,75.28
2022-09-21T21:13:13.704Z,75.19
2022-09-21T21:15:40.647Z,75.45
2022-09-21T21:18:11.187Z,75.54
2022-09-21T21:20:37.886Z,75.74
2022-09-21T21:23:07.925Z,75.79
2022-09-21T21:25:35.265Z,76.54
2022-09-21T21:28:02.497Z,76.56
2022-09-21T21:30:29.097Z,76.15
2022-09-21T21:32:56.171Z,76.24
2022-09-21T21:35:22.882Z,76.40
2022-09-21T21:37:49.742Z,76.47
2022-09-21T21:40:16.444Z,76.55
2022-09-21T21:42:43.120Z,77.07
2022-09-21T21:45:12.882Z,76.85
2022-09-21T21:47:40.832Z,76.82
2022-09-21T21:50:09.800Z,76.85
2022-09-21T21:52:36.854Z,76.39
2022-09-21T21:55:04.533Z,76.28
2022-09-21T21:57:31.187Z,76.33
2022-09-21T21:59:57.974Z,76.73
2022-09-21T22:02:24.732Z,76.72
2022-09-21T22:04:51.471Z,76.80
2022-09-21T22:07:18.534Z,77.16
2022-09-21T22:09:45.189Z,77.30
2022-09-21T22:12:12.031Z,77.76
2022-09-21T22:14:38.640Z,77.76
2022-09-21T22:17:05.716Z,77.99
2022-09-21T22:19:33.053Z,78.22
2022-09-21T22:21:59.961Z,78.40
2022-09-21T22:24:26.848Z,78.74
2022-09-21T22:26:53.596Z,78.86
2022-09-21T22:29:20.317Z,78.76
2022-09-21T22:31:49.138Z,78.61
2022-09-21T22:34:16.401Z,79.60
2022-09-21T22:36:45.924Z,79.14
2022-09-21T22:39:13.266Z,79.02
2022-09-21T22:41:41.799Z,79.48
2022-09-21T22:44:09.246Z,79.27
2022-09-21T22:46:36.558Z,78.82
2022-09-21T22:49:03.609Z,78.89
2022-09-21T22:51:30.395Z,79.08
2022-09-21T22:53:57.882Z,79.21
2022-09-21T22:56:29.053Z,79.10
2022-09-21T22:58:57.822Z,79.45
2022-09-21T23:01:38.714Z,79.24
2022-09-21T23:04:10.999Z,79.01
2022-09-21T23:06:39.522Z,79.03
2022-09-21T23:09:09.548Z,79.36
2022-09-21T23:11:38.721Z,79.08
2022-09-21T23:14:05.655Z,78.92
2022-09-21T23:16:32.506Z,78.90
2022-09-21T23:19:00.492Z,78.67
2022-09-21T23:21:29.638Z,78.72
2022-09-21T23:23:59.836Z,78.83
2022-09-21T23:26:28.137Z,78.88
2022-09-21T23:28:57.135Z,79.05
2022-09-21T23:31:26.640Z,79.43
2022-09-21T23:33:56.418Z,79.40
2022-09-21T23:36:28.434Z,79.88
2022-09-21T23:38:56.102Z,80.15
2022-09-21T23:41:34.178Z,79.82
2022-09-21T23:44:01.669Z,79.73
2022-09-21T23:46:34.225Z,79.75
2022-09-21T23:49:01.279Z,80.05
2022-09-21T23:51:28.204Z,80.13
2022-09-21T23:53:54.889Z,80.60
2022-09-21T23:56:22.780Z,80.77
2022-09-21T23:58:49.865Z,80.31
